Archer, Iowa
Current Conditions -  °F | °C
As of 1:55 PM on Wednesday 26 Nov 2014 (Local Time) from KSHL Reporting Station
Overcast Overcast  
Wind Chill:   Ceiling: 1300
Heat Index: 21°   Visibility: 8mi
Dew Point: 18°   Wind: 17mph
Humidity: 86%   Direction: 350°N
Pressure: 30.19"   Gusts: 29mph
Location:  43.12°N, 95.75°W
Report Text: KSHL 261955Z AUTO 35015G25KT 8SM OVC013 M06/M08 A3019 RMK AO2
Loading
Personal Weather Stations






























Interactive Weather Map New forecast layout! Learn more

10-Day Weather Forecast

Advertisements
Track Severe Weather on mobile